sensor_id;sensor_type;location;lat;lon;timestamp;P1;durP1;ratioP1;P2;durP2;ratioP2
74904;SDS011;63465;50.862;6.220;2023-07-02T00:01:14;10.37;;;5.40;;
74904;SDS011;63465;50.862;6.220;2023-07-02T00:03:39;8.63;;;4.07;;
74904;SDS011;63465;50.862;6.220;2023-07-02T00:06:05;16.30;;;5.60;;
74904;SDS011;63465;50.862;6.220;2023-07-02T00:08:30;12.60;;;5.50;;
74904;SDS011;63465;50.862;6.220;2023-07-02T00:10:56;13.43;;;5.10;;
74904;SDS011;63465;50.862;6.220;2023-07-02T00:13:21;14.23;;;5.13;;
74904;SDS011;63465;50.862;6.220;2023-07-02T00:15:46;11.30;;;5.30;;
74904;SDS011;63465;50.862;6.220;2023-07-02T00:18:12;8.37;;;4.73;;
74904;SDS011;63465;50.862;6.220;2023-07-02T00:20:41;12.13;;;5.17;;
74904;SDS011;63465;50.862;6.220;2023-07-02T00:23:07;16.87;;;6.23;;
74904;SDS011;63465;50.862;6.220;2023-07-02T00:25:35;10.70;;;5.70;;
74904;SDS011;63465;50.862;6.220;2023-07-02T00:28:01;11.03;;;5.47;;
74904;SDS011;63465;50.862;6.220;2023-07-02T00:30:27;10.40;;;5.80;;
74904;SDS011;63465;50.862;6.220;2023-07-02T00:32:53;12.07;;;5.50;;
74904;SDS011;63465;50.862;6.220;2023-07-02T00:35:18;16.83;;;5.87;;
74904;SDS011;63465;50.862;6.220;2023-07-02T00:37:43;11.87;;;5.20;;
74904;SDS011;63465;50.862;6.220;2023-07-02T00:40:09;14.17;;;5.90;;
74904;SDS011;63465;50.862;6.220;2023-07-02T00:42:34;9.13;;;5.77;;
74904;SDS011;63465;50.862;6.220;2023-07-02T00:45:00;16.83;;;7.10;;
74904;SDS011;63465;50.862;6.220;2023-07-02T00:47:28;12.50;;;6.63;;
74904;SDS011;63465;50.862;6.220;2023-07-02T00:49:54;12.53;;;6.10;;
74904;SDS011;63465;50.862;6.220;2023-07-02T00:52:19;15.10;;;7.30;;
74904;SDS011;63465;50.862;6.220;2023-07-02T00:54:45;19.93;;;6.73;;
74904;SDS011;63465;50.862;6.220;2023-07-02T00:57:11;17.90;;;7.10;;
74904;SDS011;63465;50.862;6.220;2023-07-02T00:59:37;11.77;;;6.43;;
74904;SDS011;63465;50.862;6.220;2023-07-02T01:02:03;21.40;;;7.30;;
74904;SDS011;63465;50.862;6.220;2023-07-02T01:04:30;21.13;;;7.87;;
74904;SDS011;63465;50.862;6.220;2023-07-02T01:06:56;17.63;;;7.30;;
74904;SDS011;63465;50.862;6.220;2023-07-02T01:09:24;17.13;;;8.10;;
74904;SDS011;63465;50.862;6.220;2023-07-02T01:11:53;16.37;;;7.47;;
74904;SDS011;63465;50.862;6.220;2023-07-02T01:14:25;25.97;;;8.30;;
74904;SDS011;63465;50.862;6.220;2023-07-02T01:16:52;14.80;;;7.50;;
74904;SDS011;63465;50.862;6.220;2023-07-02T01:19:21;13.27;;;7.57;;
74904;SDS011;63465;50.862;6.220;2023-07-02T01:21:52;15.10;;;7.50;;
74904;SDS011;63465;50.862;6.220;2023-07-02T01:24:17;21.33;;;7.63;;
74904;SDS011;63465;50.862;6.220;2023-07-02T01:26:43;17.33;;;6.50;;
74904;SDS011;63465;50.862;6.220;2023-07-02T01:29:20;16.57;;;8.00;;
74904;SDS011;63465;50.862;6.220;2023-07-02T01:31:46;15.77;;;7.30;;
74904;SDS011;63465;50.862;6.220;2023-07-02T01:34:12;22.30;;;8.50;;
74904;SDS011;63465;50.862;6.220;2023-07-02T01:36:38;17.13;;;7.57;;
74904;SDS011;63465;50.862;6.220;2023-07-02T01:39:04;15.47;;;7.20;;
74904;SDS011;63465;50.862;6.220;2023-07-02T01:41:31;36.80;;;8.83;;
74904;SDS011;63465;50.862;6.220;2023-07-02T01:44:07;33.20;;;8.23;;
74904;SDS011;63465;50.862;6.220;2023-07-02T01:46:34;22.37;;;9.57;;
74904;SDS011;63465;50.862;6.220;2023-07-02T01:48:59;17.50;;;8.27;;
74904;SDS011;63465;50.862;6.220;2023-07-02T01:51:24;18.30;;;9.13;;
74904;SDS011;63465;50.862;6.220;2023-07-02T01:53:49;29.77;;;8.93;;
74904;SDS011;63465;50.862;6.220;2023-07-02T01:56:15;26.50;;;8.90;;
74904;SDS011;63465;50.862;6.220;2023-07-02T01:58:40;18.93;;;8.93;;
74904;SDS011;63465;50.862;6.220;2023-07-02T02:01:05;20.00;;;9.60;;
74904;SDS011;63465;50.862;6.220;2023-07-02T02:03:31;26.70;;;10.30;;
74904;SDS011;63465;50.862;6.220;2023-07-02T02:05:56;29.60;;;9.33;;
74904;SDS011;63465;50.862;6.220;2023-07-02T02:08:21;20.10;;;9.10;;
74904;SDS011;63465;50.862;6.220;2023-07-02T02:10:46;24.43;;;9.90;;
74904;SDS011;63465;50.862;6.220;2023-07-02T02:13:12;16.10;;;8.60;;
74904;SDS011;63465;50.862;6.220;2023-07-02T02:15:37;22.90;;;10.10;;
74904;SDS011;63465;50.862;6.220;2023-07-02T02:18:02;21.70;;;10.07;;
74904;SDS011;63465;50.862;6.220;2023-07-02T02:20:28;31.03;;;10.73;;
74904;SDS011;63465;50.862;6.220;2023-07-02T02:22:53;25.70;;;9.80;;
74904;SDS011;63465;50.862;6.220;2023-07-02T02:25:18;20.70;;;10.87;;
74904;SDS011;63465;50.862;6.220;2023-07-02T02:27:44;19.87;;;10.37;;
74904;SDS011;63465;50.862;6.220;2023-07-02T02:30:09;22.30;;;10.17;;
74904;SDS011;63465;50.862;6.220;2023-07-02T02:32:35;17.23;;;8.80;;
74904;SDS011;63465;50.862;6.220;2023-07-02T02:35:00;17.60;;;8.70;;
74904;SDS011;63465;50.862;6.220;2023-07-02T02:37:25;22.10;;;10.97;;
74904;SDS011;63465;50.862;6.220;2023-07-02T02:39:51;25.53;;;11.07;;
74904;SDS011;63465;50.862;6.220;2023-07-02T02:42:16;23.90;;;10.10;;
74904;SDS011;63465;50.862;6.220;2023-07-02T02:44:41;26.90;;;11.03;;
74904;SDS011;63465;50.862;6.220;2023-07-02T02:47:07;24.53;;;10.63;;
74904;SDS011;63465;50.862;6.220;2023-07-02T02:49:32;22.23;;;11.17;;
74904;SDS011;63465;50.862;6.220;2023-07-02T02:51:57;23.03;;;11.00;;
74904;SDS011;63465;50.862;6.220;2023-07-02T02:54:25;25.70;;;11.90;;
74904;SDS011;63465;50.862;6.220;2023-07-02T02:56:51;32.73;;;11.40;;
74904;SDS011;63465;50.862;6.220;2023-07-02T02:59:16;28.83;;;11.87;;
74904;SDS011;63465;50.862;6.220;2023-07-02T03:01:41;25.67;;;11.57;;
74904;SDS011;63465;50.862;6.220;2023-07-02T03:04:06;41.83;;;11.70;;
74904;SDS011;63465;50.862;6.220;2023-07-02T03:06:33;26.93;;;11.03;;
74904;SDS011;63465;50.862;6.220;2023-07-02T03:08:58;30.93;;;12.47;;
74904;SDS011;63465;50.862;6.220;2023-07-02T03:11:24;23.30;;;12.47;;
74904;SDS011;63465;50.862;6.220;2023-07-02T03:13:49;27.50;;;11.20;;
74904;SDS011;63465;50.862;6.220;2023-07-02T03:16:15;26.77;;;12.50;;
74904;SDS011;63465;50.862;6.220;2023-07-02T03:18:40;38.87;;;14.20;;
74904;SDS011;63465;50.862;6.220;2023-07-02T03:21:05;31.00;;;12.13;;
74904;SDS011;63465;50.862;6.220;2023-07-02T03:23:31;26.83;;;12.60;;
74904;SDS011;63465;50.862;6.220;2023-07-02T03:25:56;32.60;;;12.83;;
74904;SDS011;63465;50.862;6.220;2023-07-02T03:28:21;32.50;;;12.97;;
74904;SDS011;63465;50.862;6.220;2023-07-02T03:30:46;25.97;;;12.73;;
74904;SDS011;63465;50.862;6.220;2023-07-02T03:33:12;33.07;;;12.80;;
74904;SDS011;63465;50.862;6.220;2023-07-02T03:35:37;28.03;;;12.90;;
74904;SDS011;63465;50.862;6.220;2023-07-02T03:38:03;30.40;;;13.90;;
74904;SDS011;63465;50.862;6.220;2023-07-02T03:40:29;26.73;;;12.63;;
74904;SDS011;63465;50.862;6.220;2023-07-02T03:42:55;32.83;;;14.70;;
74904;SDS011;63465;50.862;6.220;2023-07-02T03:45:20;35.50;;;14.17;;
74904;SDS011;63465;50.862;6.220;2023-07-02T03:47:45;31.40;;;14.37;;
74904;SDS011;63465;50.862;6.220;2023-07-02T03:50:11;30.90;;;14.47;;
74904;SDS011;63465;50.862;6.220;2023-07-02T03:52:36;32.47;;;15.03;;
74904;SDS011;63465;50.862;6.220;2023-07-02T03:55:01;40.03;;;15.70;;
74904;SDS011;63465;50.862;6.220;2023-07-02T03:57:27;35.97;;;14.57;;
74904;SDS011;63465;50.862;6.220;2023-07-02T03:59:52;32.73;;;13.37;;
74904;SDS011;63465;50.862;6.220;2023-07-02T04:02:18;33.07;;;14.43;;
74904;SDS011;63465;50.862;6.220;2023-07-02T04:04:43;36.90;;;15.80;;
74904;SDS011;63465;50.862;6.220;2023-07-02T04:07:08;32.57;;;15.33;;
74904;SDS011;63465;50.862;6.220;2023-07-02T04:09:34;36.20;;;15.40;;
74904;SDS011;63465;50.862;6.220;2023-07-02T04:12:00;37.90;;;14.83;;
74904;SDS011;63465;50.862;6.220;2023-07-02T04:14:26;38.53;;;15.70;;
74904;SDS011;63465;50.862;6.220;2023-07-02T04:16:51;43.67;;;17.07;;
74904;SDS011;63465;50.862;6.220;2023-07-02T04:19:16;43.57;;;14.97;;
74904;SDS011;63465;50.862;6.220;2023-07-02T04:21:42;34.13;;;16.00;;
74904;SDS011;63465;50.862;6.220;2023-07-02T04:24:07;35.43;;;15.70;;
74904;SDS011;63465;50.862;6.220;2023-07-02T04:26:32;38.80;;;15.90;;
74904;SDS011;63465;50.862;6.220;2023-07-02T04:28:57;50.77;;;17.87;;
74904;SDS011;63465;50.862;6.220;2023-07-02T04:31:24;33.23;;;15.80;;
74904;SDS011;63465;50.862;6.220;2023-07-02T04:33:49;34.53;;;16.07;;
74904;SDS011;63465;50.862;6.220;2023-07-02T04:36:14;53.93;;;17.87;;
74904;SDS011;63465;50.862;6.220;2023-07-02T04:38:40;40.63;;;16.27;;
74904;SDS011;63465;50.862;6.220;2023-07-02T04:41:05;45.67;;;17.97;;
74904;SDS011;63465;50.862;6.220;2023-07-02T04:43:33;37.17;;;17.60;;
74904;SDS011;63465;50.862;6.220;2023-07-02T04:45:59;44.90;;;17.37;;
74904;SDS011;63465;50.862;6.220;2023-07-02T04:48:25;42.63;;;16.80;;
74904;SDS011;63465;50.862;6.220;2023-07-02T04:50:50;43.07;;;17.67;;
74904;SDS011;63465;50.862;6.220;2023-07-02T04:53:16;39.00;;;17.70;;
74904;SDS011;63465;50.862;6.220;2023-07-02T04:55:42;46.90;;;17.80;;
74904;SDS011;63465;50.862;6.220;2023-07-02T04:58:08;38.53;;;17.80;;
74904;SDS011;63465;50.862;6.220;2023-07-02T05:00:33;35.97;;;16.30;;
74904;SDS011;63465;50.862;6.220;2023-07-02T05:02:59;40.93;;;17.53;;
74904;SDS011;63465;50.862;6.220;2023-07-02T05:05:24;41.47;;;17.20;;
74904;SDS011;63465;50.862;6.220;2023-07-02T05:07:49;44.07;;;17.87;;
74904;SDS011;63465;50.862;6.220;2023-07-02T05:10:14;38.90;;;16.30;;
74904;SDS011;63465;50.862;6.220;2023-07-02T05:12:40;40.27;;;17.07;;
74904;SDS011;63465;50.862;6.220;2023-07-02T05:15:05;43.93;;;17.30;;
74904;SDS011;63465;50.862;6.220;2023-07-02T05:17:31;45.87;;;16.73;;
74904;SDS011;63465;50.862;6.220;2023-07-02T05:19:59;45.07;;;17.57;;
74904;SDS011;63465;50.862;6.220;2023-07-02T05:22:25;38.53;;;16.70;;
74904;SDS011;63465;50.862;6.220;2023-07-02T05:24:50;37.40;;;17.10;;
74904;SDS011;63465;50.862;6.220;2023-07-02T05:27:15;47.23;;;17.87;;
74904;SDS011;63465;50.862;6.220;2023-07-02T05:29:41;42.63;;;18.07;;
74904;SDS011;63465;50.862;6.220;2023-07-02T05:32:06;47.43;;;18.90;;
74904;SDS011;63465;50.862;6.220;2023-07-02T05:34:31;44.17;;;18.30;;
74904;SDS011;63465;50.862;6.220;2023-07-02T05:36:57;42.00;;;17.83;;
74904;SDS011;63465;50.862;6.220;2023-07-02T05:39:22;49.87;;;18.87;;
74904;SDS011;63465;50.862;6.220;2023-07-02T05:41:48;49.87;;;18.30;;
74904;SDS011;63465;50.862;6.220;2023-07-02T05:44:13;48.10;;;18.87;;
74904;SDS011;63465;50.862;6.220;2023-07-02T05:46:38;49.20;;;18.33;;
74904;SDS011;63465;50.862;6.220;2023-07-02T05:49:04;55.47;;;18.13;;
74904;SDS011;63465;50.862;6.220;2023-07-02T05:51:31;40.97;;;18.60;;
74904;SDS011;63465;50.862;6.220;2023-07-02T05:53:56;43.30;;;19.13;;
74904;SDS011;63465;50.862;6.220;2023-07-02T05:56:22;42.07;;;19.43;;
74904;SDS011;63465;50.862;6.220;2023-07-02T05:58:48;40.97;;;18.20;;
74904;SDS011;63465;50.862;6.220;2023-07-02T06:01:13;39.90;;;17.87;;
74904;SDS011;63465;50.862;6.220;2023-07-02T06:03:39;47.90;;;19.93;;
74904;SDS011;63465;50.862;6.220;2023-07-02T06:06:04;60.90;;;20.30;;
74904;SDS011;63465;50.862;6.220;2023-07-02T06:08:30;46.30;;;17.97;;
74904;SDS011;63465;50.862;6.220;2023-07-02T06:10:55;42.47;;;18.77;;
74904;SDS011;63465;50.862;6.220;2023-07-02T06:13:20;39.33;;;17.90;;
74904;SDS011;63465;50.862;6.220;2023-07-02T06:15:46;41.17;;;17.07;;
74904;SDS011;63465;50.862;6.220;2023-07-02T06:18:12;49.00;;;15.70;;
74904;SDS011;63465;50.862;6.220;2023-07-02T06:20:37;38.07;;;16.67;;
74904;SDS011;63465;50.862;6.220;2023-07-02T06:23:03;39.93;;;16.73;;
74904;SDS011;63465;50.862;6.220;2023-07-02T06:25:28;46.67;;;18.00;;
74904;SDS011;63465;50.862;6.220;2023-07-02T06:27:53;50.37;;;17.17;;
74904;SDS011;63465;50.862;6.220;2023-07-02T06:30:23;42.03;;;16.70;;
74904;SDS011;63465;50.862;6.220;2023-07-02T06:32:48;46.63;;;17.43;;
74904;SDS011;63465;50.862;6.220;2023-07-02T06:35:14;44.43;;;16.77;;
74904;SDS011;63465;50.862;6.220;2023-07-02T06:37:39;39.73;;;18.33;;
74904;SDS011;63465;50.862;6.220;2023-07-02T06:40:05;44.83;;;16.67;;
74904;SDS011;63465;50.862;6.220;2023-07-02T06:42:31;42.57;;;17.13;;
74904;SDS011;63465;50.862;6.220;2023-07-02T06:44:58;38.27;;;15.90;;
74904;SDS011;63465;50.862;6.220;2023-07-02T06:47:23;43.00;;;16.20;;
74904;SDS011;63465;50.862;6.220;2023-07-02T06:49:48;40.93;;;17.30;;
74904;SDS011;63465;50.862;6.220;2023-07-02T06:52:14;45.73;;;18.37;;
74904;SDS011;63465;50.862;6.220;2023-07-02T06:54:39;37.47;;;16.23;;
74904;SDS011;63465;50.862;6.220;2023-07-02T06:57:05;30.40;;;14.73;;
74904;SDS011;63465;50.862;6.220;2023-07-02T06:59:30;36.17;;;16.47;;
74904;SDS011;63465;50.862;6.220;2023-07-02T07:01:56;44.67;;;17.70;;
74904;SDS011;63465;50.862;6.220;2023-07-02T07:04:21;37.37;;;16.37;;
74904;SDS011;63465;50.862;6.220;2023-07-02T07:06:46;43.53;;;15.83;;
74904;SDS011;63465;50.862;6.220;2023-07-02T07:09:11;33.90;;;15.10;;
74904;SDS011;63465;50.862;6.220;2023-07-02T07:11:37;40.90;;;15.47;;
74904;SDS011;63465;50.862;6.220;2023-07-02T07:14:02;39.80;;;13.87;;
74904;SDS011;63465;50.862;6.220;2023-07-02T07:16:27;37.60;;;15.60;;
74904;SDS011;63465;50.862;6.220;2023-07-02T07:18:53;30.73;;;14.07;;
74904;SDS011;63465;50.862;6.220;2023-07-02T07:21:18;28.60;;;14.87;;
74904;SDS011;63465;50.862;6.220;2023-07-02T07:23:43;34.33;;;14.50;;
74904;SDS011;63465;50.862;6.220;2023-07-02T07:26:09;37.30;;;16.07;;
74904;SDS011;63465;50.862;6.220;2023-07-02T07:28:34;39.67;;;15.80;;
74904;SDS011;63465;50.862;6.220;2023-07-02T07:31:00;39.80;;;16.00;;
74904;SDS011;63465;50.862;6.220;2023-07-02T07:33:25;36.70;;;15.00;;
74904;SDS011;63465;50.862;6.220;2023-07-02T07:35:51;36.00;;;14.60;;
74904;SDS011;63465;50.862;6.220;2023-07-02T07:38:16;40.43;;;14.90;;
74904;SDS011;63465;50.862;6.220;2023-07-02T07:40:42;38.33;;;15.00;;
74904;SDS011;63465;50.862;6.220;2023-07-02T07:43:08;37.03;;;14.97;;
74904;SDS011;63465;50.862;6.220;2023-07-02T07:45:33;33.43;;;15.40;;
74904;SDS011;63465;50.862;6.220;2023-07-02T07:47:59;35.07;;;15.67;;
74904;SDS011;63465;50.862;6.220;2023-07-02T07:50:24;33.73;;;14.60;;
74904;SDS011;63465;50.862;6.220;2023-07-02T07:52:50;32.77;;;15.17;;
74904;SDS011;63465;50.862;6.220;2023-07-02T07:55:16;31.10;;;14.67;;
74904;SDS011;63465;50.862;6.220;2023-07-02T07:57:41;34.53;;;14.50;;
74904;SDS011;63465;50.862;6.220;2023-07-02T08:00:07;34.17;;;15.50;;
74904;SDS011;63465;50.862;6.220;2023-07-02T08:02:34;30.60;;;14.10;;
74904;SDS011;63465;50.862;6.220;2023-07-02T08:05:00;34.37;;;15.87;;
74904;SDS011;63465;50.862;6.220;2023-07-02T08:07:25;41.30;;;16.37;;
74904;SDS011;63465;50.862;6.220;2023-07-02T08:09:50;37.00;;;17.07;;
74904;SDS011;63465;50.862;6.220;2023-07-02T08:12:15;35.83;;;16.57;;
74904;SDS011;63465;50.862;6.220;2023-07-02T08:14:41;31.10;;;14.63;;
74904;SDS011;63465;50.862;6.220;2023-07-02T08:17:06;32.83;;;14.77;;
74904;SDS011;63465;50.862;6.220;2023-07-02T08:19:31;33.97;;;14.53;;
74904;SDS011;63465;50.862;6.220;2023-07-02T08:21:57;30.40;;;14.17;;
74904;SDS011;63465;50.862;6.220;2023-07-02T08:24:22;33.83;;;15.63;;
74904;SDS011;63465;50.862;6.220;2023-07-02T08:26:47;32.43;;;13.23;;
74904;SDS011;63465;50.862;6.220;2023-07-02T08:29:14;32.43;;;13.67;;
74904;SDS011;63465;50.862;6.220;2023-07-02T08:31:40;34.47;;;15.30;;
74904;SDS011;63465;50.862;6.220;2023-07-02T08:34:05;34.70;;;15.77;;
74904;SDS011;63465;50.862;6.220;2023-07-02T08:36:31;35.00;;;15.70;;
74904;SDS011;63465;50.862;6.220;2023-07-02T08:38:56;34.20;;;14.60;;
74904;SDS011;63465;50.862;6.220;2023-07-02T08:41:21;35.63;;;14.63;;
74904;SDS011;63465;50.862;6.220;2023-07-02T08:43:48;36.00;;;14.90;;
74904;SDS011;63465;50.862;6.220;2023-07-02T08:46:15;33.70;;;14.93;;
74904;SDS011;63465;50.862;6.220;2023-07-02T08:48:41;42.20;;;16.37;;
74904;SDS011;63465;50.862;6.220;2023-07-02T08:51:06;32.93;;;15.30;;
74904;SDS011;63465;50.862;6.220;2023-07-02T08:53:32;34.40;;;15.30;;
74904;SDS011;63465;50.862;6.220;2023-07-02T08:55:58;36.27;;;13.67;;
74904;SDS011;63465;50.862;6.220;2023-07-02T08:58:24;36.17;;;14.40;;
74904;SDS011;63465;50.862;6.220;2023-07-02T09:01:08;32.93;;;14.67;;
74904;SDS011;63465;50.862;6.220;2023-07-02T09:03:35;35.80;;;15.90;;
74904;SDS011;63465;50.862;6.220;2023-07-02T09:06:02;37.30;;;14.40;;
74904;SDS011;63465;50.862;6.220;2023-07-02T09:08:28;47.47;;;15.73;;
74904;SDS011;63465;50.862;6.220;2023-07-02T09:10:54;33.27;;;13.87;;
74904;SDS011;63465;50.862;6.220;2023-07-02T09:13:30;38.17;;;14.37;;
74904;SDS011;63465;50.862;6.220;2023-07-02T09:15:55;35.90;;;15.00;;
74904;SDS011;63465;50.862;6.220;2023-07-02T09:18:21;25.90;;;12.70;;
74904;SDS011;63465;50.862;6.220;2023-07-02T09:20:50;35.40;;;15.00;;
74904;SDS011;63465;50.862;6.220;2023-07-02T09:23:16;27.37;;;12.97;;
74904;SDS011;63465;50.862;6.220;2023-07-02T09:25:42;23.70;;;12.93;;
74904;SDS011;63465;50.862;6.220;2023-07-02T09:28:18;28.50;;;14.50;;
74904;SDS011;63465;50.862;6.220;2023-07-02T09:30:54;30.20;;;13.53;;
74904;SDS011;63465;50.862;6.220;2023-07-02T09:33:21;29.33;;;13.93;;
74904;SDS011;63465;50.862;6.220;2023-07-02T09:35:50;31.87;;;12.97;;
74904;SDS011;63465;50.862;6.220;2023-07-02T09:38:16;31.80;;;12.57;;
74904;SDS011;63465;50.862;6.220;2023-07-02T09:40:51;29.67;;;11.83;;
74904;SDS011;63465;50.862;6.220;2023-07-02T09:43:17;30.13;;;12.90;;
74904;SDS011;63465;50.862;6.220;2023-07-02T09:45:44;25.40;;;11.43;;
74904;SDS011;63465;50.862;6.220;2023-07-02T09:48:14;23.20;;;11.67;;
74904;SDS011;63465;50.862;6.220;2023-07-02T09:50:42;21.00;;;10.43;;
74904;SDS011;63465;50.862;6.220;2023-07-02T09:53:09;29.47;;;11.37;;
74904;SDS011;63465;50.862;6.220;2023-07-02T09:55:35;30.10;;;11.33;;
74904;SDS011;63465;50.862;6.220;2023-07-02T09:58:00;26.47;;;11.50;;
74904;SDS011;63465;50.862;6.220;2023-07-02T10:00:26;30.30;;;12.80;;
74904;SDS011;63465;50.862;6.220;2023-07-02T10:02:51;23.80;;;10.83;;
74904;SDS011;63465;50.862;6.220;2023-07-02T10:05:50;34.13;;;11.80;;
74904;SDS011;63465;50.862;6.220;2023-07-02T10:08:12;26.93;;;12.63;;
74904;SDS011;63465;50.862;6.220;2023-07-02T10:10:38;25.90;;;12.20;;
74904;SDS011;63465;50.862;6.220;2023-07-02T10:13:04;25.80;;;12.10;;
74904;SDS011;63465;50.862;6.220;2023-07-02T10:15:29;28.90;;;12.63;;
74904;SDS011;63465;50.862;6.220;2023-07-02T10:17:56;30.63;;;12.60;;
74904;SDS011;63465;50.862;6.220;2023-07-02T10:20:36;28.93;;;12.93;;
74904;SDS011;63465;50.862;6.220;2023-07-02T10:23:04;22.70;;;11.07;;
74904;SDS011;63465;50.862;6.220;2023-07-02T10:25:31;32.23;;;11.77;;
74904;SDS011;63465;50.862;6.220;2023-07-02T10:27:59;24.40;;;12.50;;
74904;SDS011;63465;50.862;6.220;2023-07-02T10:30:31;26.63;;;12.47;;
74904;SDS011;63465;50.862;6.220;2023-07-02T10:33:08;29.57;;;12.60;;
74904;SDS011;63465;50.862;6.220;2023-07-02T10:35:37;31.10;;;11.70;;
74904;SDS011;63465;50.862;6.220;2023-07-02T10:38:03;25.03;;;11.10;;
74904;SDS011;63465;50.862;6.220;2023-07-02T10:40:31;21.30;;;11.03;;
74904;SDS011;63465;50.862;6.220;2023-07-02T10:42:58;18.67;;;9.50;;
74904;SDS011;63465;50.862;6.220;2023-07-02T10:45:30;29.00;;;11.57;;
74904;SDS011;63465;50.862;6.220;2023-07-02T10:47:57;22.03;;;10.50;;
74904;SDS011;63465;50.862;6.220;2023-07-02T10:50:22;25.87;;;10.30;;
74904;SDS011;63465;50.862;6.220;2023-07-02T10:52:48;28.10;;;11.33;;
74904;SDS011;63465;50.862;6.220;2023-07-02T10:55:20;22.50;;;10.43;;
74904;SDS011;63465;50.862;6.220;2023-07-02T10:57:46;21.50;;;10.13;;
74904;SDS011;63465;50.862;6.220;2023-07-02T11:00:13;20.97;;;10.07;;
74904;SDS011;63465;50.862;6.220;2023-07-02T11:02:39;24.37;;;10.53;;
74904;SDS011;63465;50.862;6.220;2023-07-02T11:05:05;18.30;;;8.93;;
74904;SDS011;63465;50.862;6.220;2023-07-02T11:07:32;28.43;;;9.67;;
74904;SDS011;63465;50.862;6.220;2023-07-02T11:09:58;20.97;;;9.03;;
74904;SDS011;63465;50.862;6.220;2023-07-02T11:12:29;25.20;;;10.47;;
74904;SDS011;63465;50.862;6.220;2023-07-02T11:15:06;21.00;;;9.83;;
74904;SDS011;63465;50.862;6.220;2023-07-02T11:17:33;22.60;;;10.13;;
74904;SDS011;63465;50.862;6.220;2023-07-02T11:19:58;22.37;;;10.37;;
74904;SDS011;63465;50.862;6.220;2023-07-02T11:22:33;22.10;;;9.90;;
74904;SDS011;63465;50.862;6.220;2023-07-02T11:25:16;18.83;;;9.83;;
74904;SDS011;63465;50.862;6.220;2023-07-02T11:27:43;22.30;;;11.00;;
74904;SDS011;63465;50.862;6.220;2023-07-02T11:30:09;25.90;;;11.03;;
74904;SDS011;63465;50.862;6.220;2023-07-02T11:32:35;20.57;;;9.10;;
74904;SDS011;63465;50.862;6.220;2023-07-02T11:35:13;21.40;;;9.90;;
74904;SDS011;63465;50.862;6.220;2023-07-02T11:37:39;24.90;;;10.00;;
74904;SDS011;63465;50.862;6.220;2023-07-02T11:40:04;26.40;;;10.23;;
74904;SDS011;63465;50.862;6.220;2023-07-02T11:42:30;22.60;;;10.20;;
74904;SDS011;63465;50.862;6.220;2023-07-02T11:44:55;19.40;;;10.00;;
74904;SDS011;63465;50.862;6.220;2023-07-02T11:47:20;33.00;;;11.93;;
74904;SDS011;63465;50.862;6.220;2023-07-02T11:49:45;29.63;;;11.37;;
74904;SDS011;63465;50.862;6.220;2023-07-02T11:52:11;24.40;;;11.53;;
74904;SDS011;63465;50.862;6.220;2023-07-02T11:54:37;23.87;;;10.47;;
74904;SDS011;63465;50.862;6.220;2023-07-02T11:57:03;24.67;;;10.23;;
74904;SDS011;63465;50.862;6.220;2023-07-02T11:59:32;18.00;;;9.87;;
74904;SDS011;63465;50.862;6.220;2023-07-02T12:01:57;23.00;;;10.50;;
74904;SDS011;63465;50.862;6.220;2023-07-02T12:04:22;26.47;;;9.73;;
74904;SDS011;63465;50.862;6.220;2023-07-02T12:06:48;24.27;;;10.60;;
74904;SDS011;63465;50.862;6.220;2023-07-02T12:09:13;22.07;;;10.27;;
74904;SDS011;63465;50.862;6.220;2023-07-02T12:11:38;27.70;;;9.87;;
74904;SDS011;63465;50.862;6.220;2023-07-02T12:14:04;22.97;;;11.13;;
74904;SDS011;63465;50.862;6.220;2023-07-02T12:16:29;24.03;;;11.17;;
74904;SDS011;63465;50.862;6.220;2023-07-02T12:18:54;27.00;;;10.07;;
74904;SDS011;63465;50.862;6.220;2023-07-02T12:21:19;28.83;;;10.73;;
74904;SDS011;63465;50.862;6.220;2023-07-02T12:23:45;24.27;;;10.00;;
74904;SDS011;63465;50.862;6.220;2023-07-02T12:26:10;19.57;;;9.57;;
74904;SDS011;63465;50.862;6.220;2023-07-02T12:28:36;21.77;;;9.10;;
74904;SDS011;63465;50.862;6.220;2023-07-02T12:31:01;33.70;;;9.90;;
74904;SDS011;63465;50.862;6.220;2023-07-02T12:33:27;25.87;;;10.87;;
74904;SDS011;63465;50.862;6.220;2023-07-02T12:35:52;20.30;;;9.63;;
74904;SDS011;63465;50.862;6.220;2023-07-02T12:38:18;27.83;;;10.77;;
74904;SDS011;63465;50.862;6.220;2023-07-02T12:40:43;22.57;;;9.43;;
74904;SDS011;63465;50.862;6.220;2023-07-02T12:43:08;28.50;;;11.27;;
74904;SDS011;63465;50.862;6.220;2023-07-02T12:45:34;18.93;;;9.20;;
74904;SDS011;63465;50.862;6.220;2023-07-02T12:47:59;28.20;;;10.63;;
74904;SDS011;63465;50.862;6.220;2023-07-02T12:50:24;22.33;;;11.03;;
74904;SDS011;63465;50.862;6.220;2023-07-02T12:52:50;23.37;;;9.83;;
74904;SDS011;63465;50.862;6.220;2023-07-02T12:55:15;18.40;;;9.50;;
74904;SDS011;63465;50.862;6.220;2023-07-02T12:57:40;20.60;;;9.90;;
74904;SDS011;63465;50.862;6.220;2023-07-02T13:00:06;20.53;;;10.33;;
74904;SDS011;63465;50.862;6.220;2023-07-02T13:02:33;19.60;;;9.13;;
74904;SDS011;63465;50.862;6.220;2023-07-02T13:04:59;23.03;;;9.67;;
74904;SDS011;63465;50.862;6.220;2023-07-02T13:07:24;19.37;;;9.20;;
74904;SDS011;63465;50.862;6.220;2023-07-02T13:09:50;27.60;;;10.60;;
74904;SDS011;63465;50.862;6.220;2023-07-02T13:12:16;23.63;;;10.50;;
74904;SDS011;63465;50.862;6.220;2023-07-02T13:14:42;21.93;;;9.60;;
74904;SDS011;63465;50.862;6.220;2023-07-02T13:17:07;37.70;;;11.13;;
74904;SDS011;63465;50.862;6.220;2023-07-02T13:19:33;23.93;;;11.20;;
74904;SDS011;63465;50.862;6.220;2023-07-02T13:21:58;23.50;;;10.93;;
74904;SDS011;63465;50.862;6.220;2023-07-02T13:24:23;22.00;;;10.30;;
74904;SDS011;63465;50.862;6.220;2023-07-02T13:26:49;19.17;;;10.43;;
74904;SDS011;63465;50.862;6.220;2023-07-02T13:29:15;18.77;;;9.33;;
74904;SDS011;63465;50.862;6.220;2023-07-02T13:31:41;21.80;;;10.37;;
74904;SDS011;63465;50.862;6.220;2023-07-02T13:34:07;24.17;;;10.00;;
74904;SDS011;63465;50.862;6.220;2023-07-02T13:36:32;22.83;;;10.40;;
74904;SDS011;63465;50.862;6.220;2023-07-02T13:38:57;30.70;;;10.97;;
74904;SDS011;63465;50.862;6.220;2023-07-02T13:41:23;21.20;;;9.43;;
74904;SDS011;63465;50.862;6.220;2023-07-02T13:43:48;26.63;;;10.67;;
74904;SDS011;63465;50.862;6.220;2023-07-02T13:46:13;26.90;;;10.63;;
74904;SDS011;63465;50.862;6.220;2023-07-02T13:48:39;21.13;;;10.33;;
74904;SDS011;63465;50.862;6.220;2023-07-02T13:51:04;22.67;;;10.97;;
74904;SDS011;63465;50.862;6.220;2023-07-02T13:53:30;17.23;;;9.20;;
74904;SDS011;63465;50.862;6.220;2023-07-02T13:55:55;22.97;;;9.37;;
74904;SDS011;63465;50.862;6.220;2023-07-02T13:58:22;21.23;;;9.13;;
74904;SDS011;63465;50.862;6.220;2023-07-02T14:00:47;23.70;;;10.63;;
74904;SDS011;63465;50.862;6.220;2023-07-02T14:03:13;22.63;;;10.17;;
74904;SDS011;63465;50.862;6.220;2023-07-02T14:05:38;20.87;;;9.70;;
74904;SDS011;63465;50.862;6.220;2023-07-02T14:08:03;20.97;;;10.70;;
74904;SDS011;63465;50.862;6.220;2023-07-02T14:10:29;23.03;;;9.60;;
74904;SDS011;63465;50.862;6.220;2023-07-02T14:12:54;22.23;;;10.00;;
74904;SDS011;63465;50.862;6.220;2023-07-02T14:15:20;21.73;;;10.67;;
74904;SDS011;63465;50.862;6.220;2023-07-02T14:17:46;27.20;;;10.47;;
74904;SDS011;63465;50.862;6.220;2023-07-02T14:20:11;22.80;;;9.83;;